Time;durP1;ratioP1;P1;durP2;ratioP2;P2;SDS_P1;SDS_P2;PMS_P1;PMS_P2;Temp;Humidity;BMP_temperature;BMP_pressure;BME280_temperature;BME280_humidity;BME280_pressure;Samples;Min_cycle;Max_cycle;Signal;HPM_P1;HPM_P2
2023/03/30 00:01:10;;;;;;;13.30;2.80;;;;;;;17.90;41.88;97147.16;5051259;28;20180;-71
2023/03/30 00:03:37;;;;;;;11.30;2.77;;;;;;;17.94;41.85;97151.06;5056442;28;20484;-70
2023/03/30 00:06:04;;;;;;;14.70;2.97;;;;;;;17.95;42.08;97153.50;5050975;28;20430;-70
2023/03/30 00:08:29;;;;;;;11.23;3.13;;;;;;;17.91;42.14;97146.94;5038874;28;20522;-72
2023/03/30 00:11:05;;;;;;;8.17;2.67;;;;;;;17.94;42.19;97149.19;5049117;28;20422;-70
2023/03/30 00:13:31;;;;;;;14.03;2.67;;;;;;;17.90;42.45;97150.59;5051490;28;20178;-71
2023/03/30 00:15:57;;;;;;;10.80;3.00;;;;;;;17.96;42.38;97149.00;5047520;28;20977;-71
2023/03/30 00:18:22;;;;;;;10.13;2.80;;;;;;;18.01;42.67;97137.84;5040401;28;20547;-70
2023/03/30 00:20:49;;;;;;;14.00;2.73;;;;;;;18.11;42.42;97130.31;5059250;28;20214;-70
2023/03/30 00:23:15;;;;;;;21.57;2.70;;;;;;;18.06;42.65;97127.44;5042007;28;20707;-70
2023/03/30 00:25:41;;;;;;;15.93;3.13;;;;;;;18.14;42.53;97129.06;5046527;28;20425;-70
2023/03/30 00:28:07;;;;;;;11.50;2.30;;;;;;;18.08;42.83;97125.41;5041918;28;20718;-70
2023/03/30 00:30:32;;;;;;;11.63;2.77;;;;;;;18.10;42.86;97128.66;5041101;28;20449;-71
2023/03/30 00:32:58;;;;;;;10.67;2.40;;;;;;;18.10;42.93;97123.38;5055693;28;20194;-70
2023/03/30 00:35:25;;;;;;;10.53;2.60;;;;;;;18.05;43.01;97131.09;5048585;28;20211;-70
2023/03/30 00:37:50;;;;;;;15.60;3.40;;;;;;;18.07;43.25;97118.47;5037331;28;20225;-71
2023/03/30 00:40:19;;;;;;;8.70;2.70;;;;;;;18.03;43.24;97117.22;5035522;28;20939;-71
2023/03/30 00:42:45;;;;;;;10.93;2.20;;;;;;;18.02;43.11;97121.72;5050360;28;20191;-70
2023/03/30 00:45:20;;;;;;;21.50;2.60;;;;;;;18.03;43.35;97112.75;5049203;28;20425;-70
2023/03/30 00:47:57;;;;;;;12.17;3.10;;;;;;;17.99;43.45;97098.25;5045160;28;20431;-70
2023/03/30 00:50:28;;;;;;;8.30;2.30;;;;;;;17.95;43.82;97099.66;5038807;28;20445;-70
2023/03/30 00:52:55;;;;;;;14.53;2.47;;;;;;;17.94;43.72;97096.19;5033601;28;20419;-71
2023/03/30 00:55:22;;;;;;;7.67;2.77;;;;;;;17.92;43.88;97097.41;5043954;28;20913;-71
2023/03/30 00:57:50;;;;;;;19.57;2.67;;;;;;;17.94;43.83;97095.38;5039592;28;20468;-71
2023/03/30 01:00:15;;;;;;;9.40;2.20;;;;;;;17.96;43.73;97086.19;5055158;28;20452;-70
2023/03/30 01:02:45;;;;;;;11.67;2.53;;;;;;;17.94;43.77;97082.94;5037394;28;20509;-69
2023/03/30 01:05:11;;;;;;;18.60;2.90;;;;;;;17.94;43.85;97090.88;5049461;28;20250;-70
2023/03/30 01:07:38;;;;;;;9.60;2.60;;;;;;;17.94;44.21;97093.53;5050755;28;20421;-70
2023/03/30 01:10:04;;;;;;;17.73;2.80;;;;;;;17.89;44.16;97080.09;5057222;28;20452;-70
2023/03/30 01:12:30;;;;;;;16.50;2.70;;;;;;;17.89;44.31;97080.09;5056117;28;20422;-70
2023/03/30 01:14:56;;;;;;;19.17;3.43;;;;;;;17.84;44.68;97077.22;5052528;28;20441;-69
2023/03/30 01:17:41;;;;;;;17.93;2.80;;;;;;;17.82;44.74;97084.53;5039198;28;20253;-70
2023/03/30 01:20:39;;;;;;;17.03;2.87;;;;;;;17.85;44.76;97091.25;5037897;28;20260;-71
2023/03/30 01:23:04;;;;;;;13.43;3.10;;;;;;;17.83;44.93;97099.44;5042939;28;20446;-69
2023/03/30 01:25:49;;;;;;;15.40;3.10;;;;;;;17.82;45.14;97111.03;5044891;28;20425;-70
2023/03/30 01:28:20;;;;;;;14.63;2.70;;;;;;;17.84;45.59;97124.09;5050072;28;20666;-70
2023/03/30 01:30:57;;;;;;;10.30;2.60;;;;;;;17.86;46.50;97138.78;5057091;28;20543;-70
2023/03/30 01:33:41;;;;;;;18.03;2.37;;;;;;;17.84;47.46;97124.91;5044028;28;20437;-71
2023/03/30 01:36:25;;;;;;;12.73;3.23;;;;;;;17.63;48.77;97128.53;5044097;28;20762;-71
2023/03/30 01:39:02;;;;;;;9.70;3.13;;;;;;;17.58;49.47;97121.19;5043531;28;21437;-70
2023/03/30 01:41:36;;;;;;;12.50;3.20;;;;;;;17.58;50.06;97104.47;5059019;28;20421;-71
2023/03/30 01:44:12;;;;;;;22.23;3.50;;;;;;;17.62;50.05;97085.34;5047334;28;20453;-72
2023/03/30 01:46:44;;;;;;;17.33;2.73;;;;;;;17.54;50.59;97084.69;5052782;28;20405;-70
2023/03/30 01:49:19;;;;;;;10.40;3.10;;;;;;;17.47;51.51;97090.78;5043456;28;20478;-71
2023/03/30 01:51:51;;;;;;;25.17;3.40;;;;;;;17.44;51.39;97112.38;5040091;28;20445;-72
2023/03/30 01:54:22;;;;;;;18.47;3.37;;;;;;;17.39;51.70;97111.34;5043600;28;20422;-72
2023/03/30 01:57:21;;;;;;;6.73;2.20;;;;;;;17.32;52.32;97101.53;5037894;28;20462;-72
2023/03/30 01:59:52;;;;;;;14.70;2.90;;;;;;;17.35;51.99;97111.72;5030294;28;20834;-73
2023/03/30 02:02:19;;;;;;;10.43;2.77;;;;;;;17.33;52.42;97097.03;5043334;28;20942;-71
2023/03/30 02:04:46;;;;;;;15.83;2.63;;;;;;;17.27;52.68;97093.34;5047541;28;20422;-72
2023/03/30 02:07:15;;;;;;;14.43;2.70;;;;;;;17.25;52.68;97098.06;5048561;28;20421;-71
2023/03/30 02:09:41;;;;;;;14.93;3.10;;;;;;;17.24;52.76;97091.13;5046575;28;20437;-70
2023/03/30 02:12:08;;;;;;;12.33;3.27;;;;;;;17.22;52.88;97101.09;5046843;28;20444;-71
2023/03/30 02:14:37;;;;;;;9.60;3.17;;;;;;;17.23;52.69;97101.88;5055775;28;20433;-71
2023/03/30 02:17:10;;;;;;;14.37;2.73;;;;;;;17.20;52.69;97103.91;5042951;28;20547;-70
2023/03/30 02:19:36;;;;;;;19.57;3.10;;;;;;;17.12;52.63;97100.63;5049800;28;20445;-71
2023/03/30 02:22:02;;;;;;;14.40;3.00;;;;;;;17.03;52.78;97100.78;5048221;28;20918;-71
2023/03/30 02:24:30;;;;;;;9.40;2.90;;;;;;;17.06;52.67;97117.28;5039475;28;20425;-71
2023/03/30 02:26:58;;;;;;;10.80;3.27;;;;;;;16.98;52.43;97116.44;5038878;28;20459;-70
2023/03/30 02:29:23;;;;;;;12.70;3.20;;;;;;;17.03;52.41;97121.97;5046360;28;20445;-70
2023/03/30 02:31:52;;;;;;;12.03;3.13;;;;;;;17.00;52.48;97119.72;5049729;28;20453;-71
2023/03/30 02:34:44;;;;;;;15.37;3.23;;;;;;;17.11;52.17;97115.69;5052793;28;20240;-70
2023/03/30 02:37:38;;;;;;;15.90;3.13;;;;;;;17.11;51.90;97120.19;5050861;28;20457;-71
2023/03/30 02:40:14;;;;;;;21.77;3.40;;;;;;;16.95;52.08;97127.44;5047007;28;20942;-71
2023/03/30 02:43:21;;;;;;;16.90;3.77;;;;;;;17.07;51.83;97126.88;5057127;28;20499;-70
2023/03/30 02:46:05;;;;;;;20.03;3.10;;;;;;;17.01;52.35;97121.34;5027866;28;20432;-71
2023/03/30 02:48:42;;;;;;;15.27;3.53;;;;;;;17.02;52.33;97107.09;5048435;28;20418;-72
2023/03/30 02:51:13;;;;;;;14.87;3.20;;;;;;;17.10;52.33;97105.31;5044622;28;20428;-71
2023/03/30 02:53:45;;;;;;;11.23;2.90;;;;;;;17.04;53.12;97097.13;5049519;28;20436;-72
2023/03/30 02:56:36;;;;;;;14.73;2.57;;;;;;;17.13;53.23;97097.78;5046710;28;20489;-71
2023/03/30 02:59:27;;;;;;;16.37;3.20;;;;;;;17.03;54.04;97092.03;5055560;28;20493;-71
2023/03/30 03:02:06;;;;;;;15.60;3.20;;;;;;;17.07;54.97;97092.47;5040072;28;20453;-72
2023/03/30 03:04:33;;;;;;;10.73;3.60;;;;;;;17.03;55.36;97066.38;5045126;28;20424;-71
2023/03/30 03:07:01;;;;;;;16.07;3.40;;;;;;;17.00;56.59;97077.38;5056914;28;20418;-70
2023/03/30 03:09:27;;;;;;;13.87;2.93;;;;;;;17.01;56.46;97067.59;5050003;28;20448;-71
2023/03/30 03:11:53;;;;;;;21.03;3.50;;;;;;;16.93;57.11;97052.66;5058679;28;20457;-71
2023/03/30 03:14:19;;;;;;;20.33;3.73;;;;;;;16.88;57.33;97036.56;5054551;28;20460;-71
2023/03/30 03:16:45;;;;;;;12.70;3.10;;;;;;;16.90;57.62;97037.16;5050303;28;20452;-71
2023/03/30 03:19:10;;;;;;;10.27;3.20;;;;;;;16.81;58.55;97031.25;5052666;28;20473;-72
2023/03/30 03:21:36;;;;;;;13.63;3.20;;;;;;;16.72;58.29;97030.56;5050658;28;20572;-70
2023/03/30 03:24:03;;;;;;;13.17;2.97;;;;;;;16.80;58.08;97039.34;5051504;28;20265;-73
2023/03/30 03:26:28;;;;;;;19.17;3.43;;;;;;;16.76;58.45;97028.34;5051560;28;20203;-70
2023/03/30 03:28:54;;;;;;;16.20;3.87;;;;;;;16.69;58.41;97023.03;5042367;28;20450;-71
2023/03/30 03:31:20;;;;;;;14.17;3.33;;;;;;;16.69;58.55;97030.16;5050662;28;20197;-70
2023/03/30 03:33:46;;;;;;;14.90;3.40;;;;;;;16.58;58.97;97024.38;5048726;28;20282;-71
2023/03/30 03:36:12;;;;;;;16.00;4.00;;;;;;;16.60;58.96;97013.63;5044816;28;21001;-70
2023/03/30 03:38:37;;;;;;;16.83;3.23;;;;;;;16.56;59.14;97017.66;5027771;28;20277;-70
2023/03/30 03:41:03;;;;;;;15.07;3.43;;;;;;;16.59;59.05;97009.34;5033186;28;20183;-70
2023/03/30 03:43:28;;;;;;;18.20;4.27;;;;;;;16.55;59.39;97022.16;5049386;28;20179;-71
2023/03/30 03:45:55;;;;;;;12.00;3.13;;;;;;;16.55;59.14;97031.91;5057235;28;20206;-70
2023/03/30 03:48:22;;;;;;;14.53;3.03;;;;;;;16.50;59.22;97034.31;5038052;28;20188;-70
2023/03/30 03:50:50;;;;;;;14.70;4.20;;;;;;;16.55;59.19;97030.09;5046547;28;20548;-70
2023/03/30 03:53:15;;;;;;;15.40;3.60;;;;;;;16.57;59.25;97014.00;5040445;28;20427;-70
2023/03/30 03:55:40;;;;;;;17.30;3.60;;;;;;;16.52;59.33;97016.41;5054661;28;20896;-71
2023/03/30 03:58:06;;;;;;;15.40;3.50;;;;;;;16.49;59.48;97014.19;5040204;28;20352;-71
2023/03/30 04:00:32;;;;;;;20.67;3.67;;;;;;;16.56;59.50;97028.25;5038540;28;20210;-70
2023/03/30 04:02:58;;;;;;;18.57;3.30;;;;;;;16.47;59.38;97016.19;5039460;28;20198;-71
2023/03/30 04:05:24;;;;;;;17.83;3.40;;;;;;;16.48;59.86;97021.28;5045917;28;20198;-71
2023/03/30 04:07:52;;;;;;;13.93;3.50;;;;;;;16.54;59.55;97003.81;5048802;28;20257;-71
2023/03/30 04:10:18;;;;;;;15.77;3.53;;;;;;;16.54;59.56;97007.28;5038973;28;20448;-71
2023/03/30 04:12:44;;;;;;;14.60;3.40;;;;;;;16.54;59.58;96998.50;5038777;28;20470;-71
2023/03/30 04:15:10;;;;;;;21.27;4.00;;;;;;;16.55;59.73;96986.94;5038253;28;20427;-71
2023/03/30 04:17:36;;;;;;;15.70;3.50;;;;;;;16.50;59.68;96976.94;5044899;28;20472;-71
2023/03/30 04:20:10;;;;;;;15.07;3.40;;;;;;;16.45;60.03;96963.47;5045681;28;20210;-71
2023/03/30 04:22:40;;;;;;;18.37;3.87;;;;;;;16.51;60.00;96956.56;5055059;28;20566;-71
2023/03/30 04:25:07;;;;;;;13.20;3.93;;;;;;;16.45;60.02;96962.66;5044075;28;20946;-71
2023/03/30 04:27:32;;;;;;;14.00;3.37;;;;;;;16.42;60.40;96954.09;5048293;28;20425;-71
2023/03/30 04:29:58;;;;;;;13.70;3.97;;;;;;;16.45;60.22;96939.66;5046754;28;22302;-70
2023/03/30 04:32:24;;;;;;;19.63;4.37;;;;;;;16.49;60.30;96945.41;5040929;28;20218;-70
2023/03/30 04:34:53;;;;;;;18.17;6.17;;;;;;;16.48;60.36;96941.94;5038038;28;20656;-70
2023/03/30 04:37:22;;;;;;;19.57;7.97;;;;;;;16.51;60.25;96928.31;5043674;28;20202;-71
2023/03/30 04:39:49;;;;;;;45.67;20.30;;;;;;;16.47;60.44;96931.56;5034642;28;20454;-70
2023/03/30 04:42:18;;;;;;;41.93;13.30;;;;;;;16.47;60.59;96923.63;5042226;28;20424;-70
2023/03/30 04:44:44;;;;;;;12.23;4.20;;;;;;;16.48;60.16;96930.53;5042116;28;20422;-71
2023/03/30 04:47:09;;;;;;;13.40;4.90;;;;;;;16.49;60.23;96927.69;5042409;28;20476;-70
2023/03/30 04:49:35;;;;;;;19.20;3.83;;;;;;;16.54;59.98;96935.03;5044907;28;20273;-70
2023/03/30 04:52:00;;;;;;;12.07;3.43;;;;;;;16.43;60.51;96929.28;5044394;28;20215;-70
2023/03/30 04:54:26;;;;;;;18.77;4.03;;;;;;;16.40;60.25;96929.69;5042905;28;20218;-71
2023/03/30 04:56:51;;;;;;;18.43;3.70;;;;;;;16.43;60.48;96926.66;5047620;28;20195;-70
2023/03/30 04:59:17;;;;;;;16.00;4.10;;;;;;;16.40;60.54;96934.97;5041234;28;20285;-71
2023/03/30 05:01:44;;;;;;;19.57;4.00;;;;;;;16.46;60.21;96933.38;5046984;28;20652;-71
2023/03/30 05:04:09;;;;;;;18.57;3.80;;;;;;;16.43;60.28;96934.59;5050877;28;20190;-70
2023/03/30 05:06:35;;;;;;;16.10;4.30;;;;;;;16.49;60.22;96932.19;5051521;28;20680;-73
2023/03/30 05:09:00;;;;;;;22.77;4.67;;;;;;;16.49;60.17;96926.88;5047551;28;20235;-71
2023/03/30 05:11:25;;;;;;;18.53;5.53;;;;;;;16.50;60.16;96915.31;5054107;28;20748;-72
2023/03/30 05:13:52;;;;;;;17.87;4.70;;;;;;;16.43;60.49;96908.13;5053934;28;20732;-72
2023/03/30 05:16:18;;;;;;;22.73;4.13;;;;;;;16.48;60.30;96909.38;5055729;28;20547;-73
2023/03/30 05:18:44;;;;;;;17.53;4.20;;;;;;;16.52;60.23;96908.78;5040648;28;20462;-72
2023/03/30 05:21:10;;;;;;;19.33;4.40;;;;;;;16.53;60.07;96901.66;5054147;28;20809;-71
2023/03/30 05:23:36;;;;;;;17.00;4.40;;;;;;;16.48;60.17;96904.09;5051219;28;20422;-71
2023/03/30 05:26:03;;;;;;;28.03;10.63;;;;;;;16.44;60.06;96898.38;5048808;28;20179;-73
2023/03/30 05:28:28;;;;;;;20.73;11.87;;;;;;;16.47;60.21;96897.19;5047972;28;20511;-71
2023/03/30 05:30:54;;;;;;;22.90;5.40;;;;;;;16.49;60.11;96900.44;5054547;28;20909;-71
2023/03/30 05:33:21;;;;;;;23.77;5.80;;;;;;;16.48;59.78;96893.53;5053809;28;20187;-71
2023/03/30 05:35:46;;;;;;;24.33;9.20;;;;;;;16.50;60.34;96894.13;5047521;28;20486;-70
2023/03/30 05:38:12;;;;;;;20.73;3.90;;;;;;;16.43;60.39;96886.97;5051368;28;20493;-71
2023/03/30 05:40:37;;;;;;;13.47;4.13;;;;;;;16.32;60.39;96887.53;5051824;28;20582;-70
2023/03/30 05:43:02;;;;;;;19.77;4.53;;;;;;;16.27;61.04;96890.78;5055764;28;20214;-70
2023/03/30 05:45:28;;;;;;;14.60;4.00;;;;;;;16.26;60.93;96883.03;5059000;28;20190;-70
2023/03/30 05:47:54;;;;;;;17.43;5.73;;;;;;;16.30;60.90;96892.22;5052911;28;20215;-71
2023/03/30 05:50:20;;;;;;;15.13;4.67;;;;;;;16.32;60.91;96900.75;5051306;28;20199;-71
2023/03/30 05:52:46;;;;;;;17.17;4.77;;;;;;;16.31;61.11;96909.72;5052984;28;20175;-70
2023/03/30 05:55:12;;;;;;;64.57;5.40;;;;;;;16.34;60.87;96914.63;5065145;28;20425;-70
2023/03/30 05:57:38;;;;;;;19.57;4.10;;;;;;;16.34;60.74;96924.34;5058980;28;20206;-70
2023/03/30 06:00:09;;;;;;;18.67;3.90;;;;;;;16.31;60.76;96917.63;5055176;28;20289;-71
2023/03/30 06:02:34;;;;;;;21.20;3.70;;;;;;;16.26;60.81;96928.81;5047228;28;20627;-70
2023/03/30 06:05:00;;;;;;;14.70;3.43;;;;;;;16.31;60.69;96936.16;5061790;28;20421;-70
2023/03/30 06:07:26;;;;;;;25.40;4.73;;;;;;;16.34;60.67;96948.16;5050488;28;20179;-70
2023/03/30 06:09:52;;;;;;;28.53;4.43;;;;;;;16.37;60.51;96950.41;5048420;28;20969;-70
2023/03/30 06:12:17;;;;;;;18.90;4.67;;;;;;;16.41;60.34;96968.34;5031170;28;20424;-70
2023/03/30 06:14:43;;;;;;;23.70;3.70;;;;;;;16.41;60.67;96972.81;5042667;28;20733;-71
2023/03/30 06:17:11;;;;;;;17.17;3.63;;;;;;;16.41;60.87;96978.91;5041429;28;20615;-72
2023/03/30 06:19:37;;;;;;;14.23;3.13;;;;;;;16.46;61.01;96980.97;5039825;28;20211;-71
2023/03/30 06:22:03;;;;;;;17.37;4.20;;;;;;;16.46;61.16;96990.75;5029296;28;21282;-71
2023/03/30 06:24:29;;;;;;;22.23;5.00;;;;;;;16.44;61.25;96977.72;5032980;28;20430;-70
2023/03/30 06:26:55;;;;;;;18.27;3.70;;;;;;;16.46;61.24;96980.16;5040549;28;20292;-70
2023/03/30 06:29:20;;;;;;;14.87;3.47;;;;;;;16.40;61.60;96966.69;5029281;28;20290;-70
2023/03/30 06:31:46;;;;;;;21.60;4.20;;;;;;;16.34;61.88;96967.50;5046607;28;20621;-70
2023/03/30 06:34:12;;;;;;;16.93;4.23;;;;;;;16.42;61.10;96975.25;5038710;28;20186;-72
2023/03/30 06:36:37;;;;;;;16.90;3.70;;;;;;;16.45;61.03;96987.28;5038654;28;21124;-71
2023/03/30 06:39:04;;;;;;;21.50;3.90;;;;;;;16.35;60.86;96992.94;5061202;28;20298;-70
2023/03/30 06:41:30;;;;;;;14.10;3.00;;;;;;;16.45;60.59;96984.63;5060973;28;20179;-71
2023/03/30 06:43:55;;;;;;;16.03;3.70;;;;;;;16.49;60.45;96996.47;5050994;28;20426;-71
2023/03/30 06:46:21;;;;;;;23.97;3.60;;;;;;;16.54;60.20;96987.94;5047441;28;20440;-71
2023/03/30 06:48:46;;;;;;;13.50;4.37;;;;;;;16.59;59.93;97004.06;5040303;28;20179;-71
2023/03/30 06:51:13;;;;;;;23.07;5.13;;;;;;;16.63;59.83;97017.69;5056346;28;20175;-69
2023/03/30 06:53:38;;;;;;;14.40;4.40;;;;;;;16.68;59.72;97034.63;5051289;28;20187;-71
2023/03/30 06:56:04;;;;;;;18.73;3.60;;;;;;;16.70;59.94;97052.94;5056265;28;20479;-71
2023/03/30 06:58:30;;;;;;;21.90;4.20;;;;;;;16.68;59.43;97062.91;5048150;28;20234;-71
2023/03/30 07:00:55;;;;;;;18.90;3.63;;;;;;;16.72;59.57;97072.06;5057712;28;20195;-71
2023/03/30 07:03:21;;;;;;;17.27;4.50;;;;;;;16.68;59.79;97079.59;5047816;28;20237;-71
2023/03/30 07:05:51;;;;;;;15.43;4.37;;;;;;;16.73;59.70;97081.66;5047509;28;20187;-70
2023/03/30 07:08:17;;;;;;;8.93;3.50;;;;;;;16.72;59.63;97086.16;5046596;28;20187;-71
2023/03/30 07:10:43;;;;;;;15.90;3.80;;;;;;;16.72;59.59;97086.16;5047765;28;20449;-71
2023/03/30 07:13:09;;;;;;;19.07;4.47;;;;;;;16.72;59.36;97086.16;5049253;28;20483;-71
2023/03/30 07:15:34;;;;;;;17.43;4.33;;;;;;;16.73;59.45;97092.25;5047516;28;20194;-72
2023/03/30 07:18:00;;;;;;;23.53;3.90;;;;;;;16.73;59.69;97103.66;5048596;28;20569;-71
2023/03/30 07:20:26;;;;;;;10.63;3.03;;;;;;;16.72;60.29;97099.38;5046910;28;20206;-71
2023/03/30 07:22:51;;;;;;;12.90;4.20;;;;;;;16.70;60.99;97109.34;5051683;28;20286;-71
2023/03/30 07:25:17;;;;;;;13.90;4.00;;;;;;;16.71;61.63;97112.78;5067138;28;20414;-71
2023/03/30 07:27:42;;;;;;;23.30;4.20;;;;;;;16.70;62.00;97129.66;5051515;28;20229;-70
2023/03/30 07:30:09;;;;;;;20.90;4.30;;;;;;;16.66;62.65;97134.53;5053451;28;20726;-71
2023/03/30 07:32:35;;;;;;;24.97;4.07;;;;;;;16.67;62.90;97141.47;5049774;28;20785;-71
2023/03/30 07:35:00;;;;;;;12.80;3.93;;;;;;;16.63;63.46;97127.00;5046751;28;20512;-72
2023/03/30 07:37:27;;;;;;;17.20;4.10;;;;;;;16.59;63.58;97109.88;5051037;28;20457;-71
2023/03/30 07:39:53;;;;;;;20.57;4.40;;;;;;;16.59;63.76;97088.72;5056674;28;20202;-72
2023/03/30 07:42:18;;;;;;;14.73;3.67;;;;;;;16.57;64.21;97102.09;5051479;28;20849;-71
2023/03/30 07:44:44;;;;;;;18.90;4.83;;;;;;;16.56;64.17;97062.63;5062210;28;20428;-71
2023/03/30 07:47:09;;;;;;;25.60;4.27;;;;;;;16.54;64.45;97109.63;5050710;28;20679;-72
2023/03/30 07:49:35;;;;;;;16.13;3.87;;;;;;;16.52;64.81;97098.41;5056468;28;20202;-71
2023/03/30 07:52:01;;;;;;;18.27;4.00;;;;;;;16.52;65.20;97101.88;5051938;28;20711;-71
2023/03/30 07:54:26;;;;;;;22.40;4.40;;;;;;;16.52;65.38;97093.13;5053578;28;20601;-71
2023/03/30 07:56:52;;;;;;;14.77;3.93;;;;;;;16.55;65.26;97095.38;5050525;28;20619;-71
2023/03/30 07:59:22;;;;;;;20.23;4.90;;;;;;;16.53;65.16;97069.13;5047510;28;20287;-71
2023/03/30 08:01:53;;;;;;;10.23;3.80;;;;;;;16.55;65.37;97074.22;5046008;28;20644;-71
2023/03/30 08:04:19;;;;;;;14.10;3.20;;;;;;;16.54;65.42;97077.88;5043035;28;20422;-71
2023/03/30 08:06:45;;;;;;;17.40;3.67;;;;;;;16.55;65.44;97077.69;5048669;28;20422;-71
2023/03/30 08:09:11;;;;;;;11.57;4.00;;;;;;;16.56;65.67;97097.84;5059607;28;20446;-71
2023/03/30 08:11:37;;;;;;;14.50;4.60;;;;;;;16.59;65.76;97120.44;5056969;28;20241;-71
2023/03/30 08:14:03;;;;;;;16.83;3.70;;;;;;;16.57;65.67;97130.41;5045653;28;20423;-71
2023/03/30 08:16:28;;;;;;;13.00;4.13;;;;;;;16.56;65.98;97144.63;5050869;28;20780;-71
2023/03/30 08:18:54;;;;;;;9.43;3.80;;;;;;;16.56;66.02;97166.63;5045820;28;20470;-71
2023/03/30 08:21:21;;;;;;;13.50;3.43;;;;;;;16.54;65.93;97183.69;5047101;28;20183;-71
2023/03/30 08:23:46;;;;;;;8.83;3.57;;;;;;;16.52;65.87;97185.69;5044531;28;20240;-71
2023/03/30 08:26:11;;;;;;;17.90;4.07;;;;;;;16.50;65.91;97187.75;5051362;28;20982;-72
2023/03/30 08:28:37;;;;;;;16.33;4.03;;;;;;;16.50;65.92;97183.25;5050275;28;20262;-71
2023/03/30 08:31:04;;;;;;;10.70;3.83;;;;;;;16.54;65.74;97152.78;5063763;28;20227;-71
2023/03/30 08:33:30;;;;;;;14.53;3.70;;;;;;;16.57;65.84;97151.56;5035159;28;20194;-71
2023/03/30 08:35:56;;;;;;;7.20;3.00;;;;;;;16.58;65.71;97166.44;5036432;28;20432;-71
2023/03/30 08:38:21;;;;;;;7.43;3.10;;;;;;;16.58;65.70;97161.13;5046657;28;20215;-71
2023/03/30 08:40:48;;;;;;;7.60;2.97;;;;;;;16.57;65.64;97162.16;5044346;28;20207;-70
2023/03/30 08:43:35;;;;;;;8.47;2.90;;;;;;;16.57;65.36;97178.81;5049968;28;20188;-72
2023/03/30 08:46:02;;;;;;;11.67;3.43;;;;;;;16.58;65.18;97167.22;5048792;28;20493;-71
2023/03/30 08:48:32;;;;;;;8.37;2.90;;;;;;;16.58;64.63;97147.91;5054948;28;20436;-71
2023/03/30 08:51:07;;;;;;;11.70;3.13;;;;;;;16.59;64.73;97138.97;5038519;28;20641;-71
2023/03/30 08:53:33;;;;;;;12.77;3.57;;;;;;;16.47;65.57;97128.09;5051702;28;20609;-71
2023/03/30 08:56:06;;;;;;;7.63;3.37;;;;;;;16.43;65.39;97124.19;5048945;28;20521;-71
2023/03/30 08:59:17;;;;;;;9.20;3.00;;;;;;;16.23;65.65;97108.19;5045321;28;20226;-70
2023/03/30 09:01:53;;;;;;;7.90;3.30;;;;;;;16.29;65.56;97120.63;5043443;28;20428;-71
2023/03/30 09:04:37;;;;;;;8.77;2.70;;;;;;;16.12;65.00;97106.84;5049243;28;20421;-71
2023/03/30 09:07:09;;;;;;;13.93;3.30;;;;;;;16.03;64.90;97102.72;5052265;28;20413;-71
2023/03/30 09:09:41;;;;;;;8.50;2.40;;;;;;;16.15;64.98;97108.28;5043447;28;20446;-71
2023/03/30 09:12:18;;;;;;;6.67;2.63;;;;;;;16.02;64.42;97107.16;5039899;28;20437;-70
2023/03/30 09:14:47;;;;;;;8.70;3.10;;;;;;;16.04;64.90;97099.88;5052402;28;21013;-71
2023/03/30 09:17:16;;;;;;;8.13;2.57;;;;;;;15.92;64.31;97080.25;5051949;28;21032;-71
2023/03/30 09:19:51;;;;;;;6.00;2.33;;;;;;;15.87;64.11;97080.81;5048898;28;20460;-71
2023/03/30 09:22:18;;;;;;;8.20;2.43;;;;;;;15.81;63.84;97074.44;5051806;28;20421;-71
2023/03/30 09:24:44;;;;;;;9.07;2.43;;;;;;;15.89;63.99;97075.31;5049568;28;20421;-71
2023/03/30 09:27:59;;;;;;;8.83;2.40;;;;;;;15.88;63.70;97085.09;5045775;28;20429;-71
2023/03/30 09:30:31;;;;;;;6.60;2.40;;;;;;;15.97;62.94;97077.84;5044341;28;20474;-70
2023/03/30 09:33:22;;;;;;;10.93;2.30;;;;;;;15.99;63.13;97099.63;5047726;28;20429;-71
2023/03/30 09:36:00;;;;;;;3.93;2.20;;;;;;;15.95;63.19;97098.38;5043650;28;20504;-71
2023/03/30 09:38:26;;;;;;;4.77;2.57;;;;;;;15.97;62.64;97099.00;5048030;28;21249;-70
2023/03/30 09:41:06;;;;;;;7.77;2.20;;;;;;;16.03;62.68;97106.16;5048868;28;20548;-71
2023/03/30 09:43:43;;;;;;;5.70;2.50;;;;;;;16.07;62.24;97120.63;5050657;28;20430;-70
2023/03/30 09:46:09;;;;;;;7.90;2.57;;;;;;;16.12;62.30;97128.00;5037643;28;20418;-71
2023/03/30 09:48:53;;;;;;;5.47;2.23;;;;;;;16.22;61.85;97139.06;5048337;28;20433;-71
2023/03/30 09:51:20;;;;;;;4.67;2.13;;;;;;;16.28;61.31;97150.72;5042188;28;20425;-71
2023/03/30 09:53:48;;;;;;;4.03;2.40;;;;;;;16.39;61.25;97138.81;5057073;28;20500;-70
2023/03/30 09:56:26;;;;;;;5.50;2.43;;;;;;;16.45;61.00;97147.81;5047060;28;20421;-71
2023/03/30 09:58:52;;;;;;;8.30;3.50;;;;;;;16.39;61.05;97144.91;5048154;28;20489;-71
2023/03/30 10:01:19;;;;;;;6.27;2.73;;;;;;;16.37;60.75;97141.66;5032381;28;20468;-70
2023/03/30 10:04:03;;;;;;;5.10;3.10;;;;;;;16.39;60.83;97144.09;5050383;28;20186;-71
2023/03/30 10:06:30;;;;;;;9.20;2.40;;;;;;;16.52;60.81;97140.72;5035776;28;20787;-70
2023/03/30 10:08:56;;;;;;;3.83;2.70;;;;;;;16.87;60.30;97138.94;5040701;28;20432;-72
2023/03/30 10:11:30;;;;;;;5.43;2.80;;;;;;;17.03;60.41;97135.19;5046797;28;20437;-71
2023/03/30 10:13:56;;;;;;;7.23;2.67;;;;;;;17.14;59.93;97143.59;5049932;28;20418;-71
2023/03/30 10:16:27;;;;;;;4.30;2.90;;;;;;;17.13;59.71;97139.34;5052481;28;20417;-71
2023/03/30 10:18:56;;;;;;;5.47;2.90;;;;;;;17.23;59.53;97139.78;5039343;28;20552;-71
2023/03/30 10:21:26;;;;;;;3.80;2.87;;;;;;;17.22;59.14;97137.31;5046960;28;20418;-71
2023/03/30 10:24:01;;;;;;;5.33;2.93;;;;;;;17.24;59.23;97125.53;5049115;28;20435;-71
2023/03/30 10:26:30;;;;;;;11.53;3.00;;;;;;;17.26;58.89;97122.69;5041268;28;20445;-70
2023/03/30 10:29:03;;;;;;;5.40;3.10;;;;;;;17.29;59.21;97123.09;5040413;28;20677;-71
2023/03/30 10:31:29;;;;;;;3.83;2.87;;;;;;;17.38;59.24;97120.31;5061673;28;20436;-71
2023/03/30 10:33:57;;;;;;;4.13;2.80;;;;;;;17.39;58.74;97111.34;5050571;28;20442;-71
2023/03/30 10:36:25;;;;;;;5.47;2.60;;;;;;;17.41;59.16;97104.00;5040075;28;20521;-71
2023/03/30 10:38:51;;;;;;;8.97;3.27;;;;;;;17.42;58.89;97116.22;5055893;28;20464;-71
2023/03/30 10:41:21;;;;;;;8.47;2.87;;;;;;;17.34;58.96;97110.09;5047465;28;20821;-71
2023/03/30 10:43:48;;;;;;;5.93;2.70;;;;;;;17.31;58.97;97115.78;5036943;28;20484;-71
2023/03/30 10:46:17;;;;;;;4.70;3.27;;;;;;;17.18;59.06;97121.84;5047896;28;20429;-70
2023/03/30 10:49:03;;;;;;;8.93;2.90;;;;;;;17.20;58.88;97124.28;5043753;28;20432;-71
2023/03/30 10:51:40;;;;;;;4.53;2.63;;;;;;;17.08;59.21;97131.16;5050052;28;20992;-71
2023/03/30 10:54:17;;;;;;;11.03;3.20;;;;;;;17.11;58.96;97125.47;5053308;28;20434;-71
2023/03/30 10:56:50;;;;;;;10.43;2.90;;;;;;;17.11;59.49;97120.19;5051770;28;21097;-71
2023/03/30 10:59:42;;;;;;;4.20;2.90;;;;;;;17.10;59.32;97105.31;5055669;28;20812;-72
2023/03/30 11:02:31;;;;;;;5.50;3.03;;;;;;;17.21;59.69;97104.75;5028963;28;20430;-71
2023/03/30 11:05:01;;;;;;;5.57;3.20;;;;;;;17.24;60.87;97104.34;5055965;28;20422;-71
2023/03/30 11:07:52;;;;;;;9.60;3.40;;;;;;;17.27;60.63;97072.16;5056347;28;20443;-71
2023/03/30 11:10:38;;;;;;;5.97;2.93;;;;;;;17.04;61.37;97093.66;5032631;28;20507;-70
2023/03/30 11:13:06;;;;;;;5.53;3.30;;;;;;;17.15;62.26;97110.81;5052776;28;20455;-71
2023/03/30 11:15:40;;;;;;;6.93;3.00;;;;;;;17.11;62.27;97109.59;5052557;28;20426;-71
2023/03/30 11:18:25;;;;;;;6.40;3.20;;;;;;;17.16;63.08;97091.25;5055890;28;20547;-71
2023/03/30 11:21:02;;;;;;;5.80;3.30;;;;;;;17.23;62.83;97112.47;5046095;28;20450;-71
2023/03/30 11:23:55;;;;;;;7.20;2.97;;;;;;;17.27;62.58;97098.66;5044789;28;20452;-70
2023/03/30 11:26:33;;;;;;;12.50;3.43;;;;;;;17.14;63.57;97090.63;5059897;28;20525;-71
2023/03/30 11:29:12;;;;;;;8.23;3.30;;;;;;;17.33;63.15;97097.03;5064831;28;20455;-70
2023/03/30 11:32:01;;;;;;;7.13;3.10;;;;;;;17.46;62.36;97109.53;5059047;28;20465;-70
2023/03/30 11:34:32;;;;;;;13.07;3.63;;;;;;;17.64;62.30;97106.31;5061414;28;20416;-71
2023/03/30 11:37:04;;;;;;;10.83;3.20;;;;;;;17.58;61.39;97118.53;5050180;28;20423;-71
2023/03/30 11:39:35;;;;;;;6.80;3.30;;;;;;;17.75;60.87;97118.19;5045834;28;20437;-70